AUA24 LOWI-EDSB
Flight info
| Callsign | AUA24 |
|---|---|
| Flight time | 0h 40m |
| Altitude | 22000 |
| Route | KPT DCT LUP DCT LUPOL Z714 SUL SUL1L |
| Aircraft | DH8D/M-SDE2E3FGRY/H |
Departure
| Time | 2026-05-07 13:49 |
|---|---|
| Airport | Innsbruck Airport (LOWI) |
Arrival
| Time | 2026-05-07 14:29 |
|---|---|
| Airport | Karlsruhe Baden-Baden Airport (EDSB) |
| Time | Latitude | Longitude | Altitude | Speed | Heading |
|---|---|---|---|---|---|
| 2026-05-07 13:20 | 47.25798 | 11.34807 | 1915 ft | 0 kts | 171° |
| 2026-05-07 13:23 | 47.25747 | 11.34779 | 1915 ft | 0 kts | 350° |
| 2026-05-07 13:24 | 47.25742 | 11.34652 | 1916 ft | 0 kts | 80° |
| 2026-05-07 13:25 | 47.25834 | 11.35118 | 1912 ft | 0 kts | 171° |
| 2026-05-07 13:43 | 47.25833 | 11.35118 | 1911 ft | 0 kts | 171° |
| 2026-05-07 13:43 | 47.25838 | 11.35116 | 1912 ft | 2 kts | 171° |
| 2026-05-07 13:44 | 47.25853 | 11.35113 | 1912 ft | 2 kts | 171° |
| 2026-05-07 13:44 | 47.25863 | 11.35111 | 1912 ft | 2 kts | 166° |
| 2026-05-07 13:44 | 47.25875 | 11.35099 | 1912 ft | 2 kts | 125° |
| 2026-05-07 13:44 | 47.25880 | 11.35079 | 1912 ft | 2 kts | 88° |
| 2026-05-07 13:45 | 47.25879 | 11.35071 | 1912 ft | 0 kts | 79° |
| 2026-05-07 13:46 | 47.25879 | 11.35072 | 1912 ft | 1 kts | 79° |
| 2026-05-07 13:47 | 47.25893 | 11.35193 | 1912 ft | 18 kts | 80° |
| 2026-05-07 13:47 | 47.25963 | 11.35279 | 1912 ft | 13 kts | 352° |
| 2026-05-07 13:47 | 47.26045 | 11.35261 | 1912 ft | 10 kts | 352° |
| 2026-05-07 13:47 | 47.26101 | 11.35234 | 1912 ft | 7 kts | 304° |
| 2026-05-07 13:48 | 47.26096 | 11.35146 | 1912 ft | 17 kts | 258° |
| 2026-05-07 13:48 | 47.26030 | 11.34529 | 1918 ft | 104 kts | 258° |
| 2026-05-07 13:48 | 47.25882 | 11.33139 | 1949 ft | 161 kts | 264° |
| 2026-05-07 13:48 | 47.25834 | 11.31476 | 2396 ft | 164 kts | 276° |
| 2026-05-07 13:49 | 47.25998 | 11.29753 | 2817 ft | 179 kts | 284° |
| 2026-05-07 13:49 | 47.26287 | 11.27965 | 3404 ft | 183 kts | 286° |
| 2026-05-07 13:49 | 47.26733 | 11.26160 | 3879 ft | 196 kts | 292° |
| 2026-05-07 13:49 | 47.27236 | 11.24205 | 4285 ft | 213 kts | 294° |
| 2026-05-07 13:50 | 47.27838 | 11.22133 | 4692 ft | 228 kts | 294° |
| 2026-05-07 13:50 | 47.28469 | 11.19937 | 5159 ft | 238 kts | 294° |
| 2026-05-07 13:50 | 47.29107 | 11.17697 | 5658 ft | 241 kts | 294° |
| 2026-05-07 13:50 | 47.29761 | 11.15390 | 6165 ft | 244 kts | 294° |
| 2026-05-07 13:51 | 47.30417 | 11.13071 | 6677 ft | 247 kts | 294° |
| 2026-05-07 13:51 | 47.31074 | 11.10755 | 7170 ft | 249 kts | 294° |
| 2026-05-07 13:51 | 47.31740 | 11.08405 | 7661 ft | 251 kts | 294° |
| 2026-05-07 13:51 | 47.32419 | 11.06005 | 8170 ft | 252 kts | 294° |
| 2026-05-07 13:52 | 47.33093 | 11.03627 | 8670 ft | 253 kts | 294° |
| 2026-05-07 13:52 | 47.33770 | 11.01245 | 9181 ft | 253 kts | 294° |
| 2026-05-07 13:52 | 47.34450 | 10.98880 | 9680 ft | 253 kts | 294° |
| 2026-05-07 13:52 | 47.35142 | 10.96489 | 10184 ft | 253 kts | 294° |
| 2026-05-07 13:53 | 47.35862 | 10.94140 | 10678 ft | 253 kts | 296° |
| 2026-05-07 13:53 | 47.36778 | 10.91934 | 11140 ft | 252 kts | 312° |
| 2026-05-07 13:53 | 47.38045 | 10.90167 | 11658 ft | 251 kts | 317° |
| 2026-05-07 13:53 | 47.39305 | 10.88456 | 12140 ft | 248 kts | 316° |
| 2026-05-07 13:54 | 47.40554 | 10.86717 | 12637 ft | 246 kts | 315° |
| 2026-05-07 13:54 | 47.41783 | 10.84970 | 13111 ft | 243 kts | 315° |
| 2026-05-07 13:54 | 47.42984 | 10.83231 | 13617 ft | 242 kts | 314° |
| 2026-05-07 13:54 | 47.44163 | 10.81505 | 14122 ft | 238 kts | 313° |
| 2026-05-07 13:55 | 47.45322 | 10.79790 | 14608 ft | 235 kts | 313° |
| 2026-05-07 13:55 | 47.46450 | 10.78110 | 15099 ft | 231 kts | 313° |
| 2026-05-07 13:55 | 47.47564 | 10.76441 | 15590 ft | 226 kts | 313° |
| 2026-05-07 13:55 | 47.48646 | 10.74816 | 16073 ft | 220 kts | 312° |
| 2026-05-07 13:56 | 47.49689 | 10.73242 | 16573 ft | 212 kts | 312° |
| 2026-05-07 13:56 | 47.50699 | 10.71718 | 17068 ft | 203 kts | 312° |
| 2026-05-07 13:56 | 47.51664 | 10.70256 | 17470 ft | 197 kts | 312° |
| 2026-05-07 13:56 | 47.52601 | 10.68834 | 17771 ft | 195 kts | 312° |
| 2026-05-07 13:57 | 47.53543 | 10.67404 | 18064 ft | 193 kts | 312° |
| 2026-05-07 13:57 | 47.54486 | 10.65967 | 18275 ft | 196 kts | 312° |
| 2026-05-07 13:57 | 47.55455 | 10.64487 | 18386 ft | 202 kts | 312° |
| 2026-05-07 13:57 | 47.56436 | 10.62983 | 18527 ft | 206 kts | 311° |
| 2026-05-07 13:58 | 47.57436 | 10.61448 | 18684 ft | 209 kts | 311° |
| 2026-05-07 13:58 | 47.58463 | 10.59872 | 18831 ft | 213 kts | 312° |
| 2026-05-07 13:58 | 47.59493 | 10.58290 | 18972 ft | 217 kts | 312° |
| 2026-05-07 13:58 | 47.60556 | 10.56659 | 19109 ft | 221 kts | 312° |
| 2026-05-07 13:59 | 47.61632 | 10.55005 | 19261 ft | 225 kts | 312° |
| 2026-05-07 13:59 | 47.62714 | 10.53340 | 19403 ft | 229 kts | 312° |
| 2026-05-07 13:59 | 47.63829 | 10.51624 | 19617 ft | 229 kts | 312° |
| 2026-05-07 13:59 | 47.64930 | 10.49931 | 19847 ft | 229 kts | 312° |
| 2026-05-07 14:00 | 47.66044 | 10.48217 | 19963 ft | 234 kts | 312° |
| 2026-05-07 14:00 | 47.67188 | 10.46454 | 20022 ft | 242 kts | 312° |
| 2026-05-07 14:00 | 47.68372 | 10.44628 | 20031 ft | 251 kts | 313° |
| 2026-05-07 14:00 | 47.69608 | 10.42720 | 20030 ft | 260 kts | 313° |
| 2026-05-07 14:01 | 47.70871 | 10.40768 | 20037 ft | 268 kts | 313° |
| 2026-05-07 14:01 | 47.72189 | 10.38731 | 20023 ft | 277 kts | 313° |
| 2026-05-07 14:01 | 47.73534 | 10.36651 | 20042 ft | 284 kts | 313° |
| 2026-05-07 14:01 | 47.74981 | 10.34632 | 20022 ft | 293 kts | 321° |
| 2026-05-07 14:02 | 47.76699 | 10.32969 | 20022 ft | 299 kts | 326° |
| 2026-05-07 14:02 | 47.78408 | 10.31419 | 20025 ft | 303 kts | 326° |
| 2026-05-07 14:02 | 47.80232 | 10.29762 | 20027 ft | 306 kts | 326° |
| 2026-05-07 14:02 | 47.82058 | 10.28097 | 20022 ft | 310 kts | 326° |
| 2026-05-07 14:03 | 47.83900 | 10.26412 | 20027 ft | 313 kts | 326° |
| 2026-05-07 14:03 | 47.85767 | 10.24700 | 20022 ft | 316 kts | 326° |
| 2026-05-07 14:03 | 47.87641 | 10.22978 | 20021 ft | 317 kts | 326° |
| 2026-05-07 14:03 | 47.89518 | 10.21249 | 20021 ft | 320 kts | 326° |
| 2026-05-07 14:04 | 47.91386 | 10.19526 | 20018 ft | 321 kts | 326° |
| 2026-05-07 14:04 | 47.93322 | 10.17761 | 20021 ft | 324 kts | 326° |
| 2026-05-07 14:04 | 47.95224 | 10.16006 | 20024 ft | 325 kts | 326° |
| 2026-05-07 14:04 | 47.97146 | 10.14219 | 20025 ft | 327 kts | 326° |
| 2026-05-07 14:05 | 47.99075 | 10.12425 | 20022 ft | 328 kts | 326° |
| 2026-05-07 14:05 | 48.01014 | 10.10621 | 20020 ft | 328 kts | 326° |
| 2026-05-07 14:05 | 48.02967 | 10.08803 | 20019 ft | 330 kts | 326° |
| 2026-05-07 14:05 | 48.04911 | 10.06994 | 20020 ft | 331 kts | 326° |
| 2026-05-07 14:06 | 48.06878 | 10.05166 | 20020 ft | 332 kts | 326° |
| 2026-05-07 14:06 | 48.08844 | 10.03333 | 20020 ft | 333 kts | 326° |
| 2026-05-07 14:06 | 48.10788 | 10.01517 | 20020 ft | 333 kts | 326° |
| 2026-05-07 14:06 | 48.12693 | 9.99731 | 20016 ft | 334 kts | 326° |
| 2026-05-07 14:07 | 48.14625 | 9.97922 | 20011 ft | 334 kts | 326° |
| 2026-05-07 14:07 | 48.16607 | 9.96069 | 20008 ft | 334 kts | 326° |
| 2026-05-07 14:07 | 48.18489 | 9.94025 | 19978 ft | 334 kts | 314° |
| 2026-05-07 14:07 | 48.19639 | 9.91101 | 20007 ft | 330 kts | 287° |
| 2026-05-07 14:08 | 48.19737 | 9.87701 | 20012 ft | 330 kts | 260° |
| 2026-05-07 14:08 | 48.19054 | 9.84459 | 20020 ft | 330 kts | 253° |
| 2026-05-07 14:08 | 48.18852 | 9.81094 | 20005 ft | 329 kts | 279° |
| 2026-05-07 14:08 | 48.19620 | 9.77861 | 20029 ft | 328 kts | 294° |
| 2026-05-07 14:09 | 48.20471 | 9.74670 | 20012 ft | 329 kts | 289° |
| 2026-05-07 14:09 | 48.21141 | 9.71407 | 20007 ft | 330 kts | 285° |
| 2026-05-07 14:09 | 48.21681 | 9.68086 | 19945 ft | 332 kts | 282° |
| 2026-05-07 14:09 | 48.22120 | 9.64664 | 19778 ft | 331 kts | 280° |
| 2026-05-07 14:10 | 48.22457 | 9.61325 | 19543 ft | 323 kts | 278° |
| 2026-05-07 14:10 | 48.22736 | 9.58012 | 19310 ft | 317 kts | 277° |
| 2026-05-07 14:10 | 48.22982 | 9.54739 | 19077 ft | 312 kts | 277° |
| 2026-05-07 14:10 | 48.23645 | 9.51685 | 18728 ft | 311 kts | 300° |
| 2026-05-07 14:11 | 48.24934 | 9.49124 | 18350 ft | 312 kts | 308° |
| 2026-05-07 14:11 | 48.26325 | 9.46614 | 18005 ft | 311 kts | 309° |
| 2026-05-07 14:11 | 48.27699 | 9.44165 | 17700 ft | 309 kts | 309° |
| 2026-05-07 14:11 | 48.29092 | 9.41690 | 17395 ft | 307 kts | 309° |
| 2026-05-07 14:12 | 48.30461 | 9.39264 | 17094 ft | 305 kts | 309° |
| 2026-05-07 14:12 | 48.31818 | 9.36862 | 16792 ft | 303 kts | 309° |
| 2026-05-07 14:12 | 48.33178 | 9.34456 | 16483 ft | 302 kts | 309° |
| 2026-05-07 14:12 | 48.34534 | 9.32056 | 16179 ft | 301 kts | 309° |
| 2026-05-07 14:13 | 48.35890 | 9.29656 | 15908 ft | 299 kts | 309° |
| 2026-05-07 14:13 | 48.37230 | 9.27284 | 15648 ft | 296 kts | 309° |
| 2026-05-07 14:13 | 48.38551 | 9.24945 | 15395 ft | 294 kts | 309° |
| 2026-05-07 14:13 | 48.39872 | 9.22603 | 15142 ft | 292 kts | 309° |
| 2026-05-07 14:14 | 48.41169 | 9.20303 | 14998 ft | 286 kts | 309° |
| 2026-05-07 14:14 | 48.42440 | 9.18047 | 14981 ft | 278 kts | 309° |
| 2026-05-07 14:14 | 48.43657 | 9.15887 | 14961 ft | 269 kts | 309° |
| 2026-05-07 14:14 | 48.44857 | 9.13753 | 14947 ft | 263 kts | 309° |
| 2026-05-07 14:15 | 48.46010 | 9.11701 | 14939 ft | 256 kts | 309° |
| 2026-05-07 14:15 | 48.47154 | 9.09664 | 14923 ft | 251 kts | 309° |
| 2026-05-07 14:15 | 48.48270 | 9.07676 | 14911 ft | 245 kts | 309° |
| 2026-05-07 14:15 | 48.49364 | 9.05727 | 14893 ft | 240 kts | 309° |
| 2026-05-07 14:16 | 48.50431 | 9.03822 | 14694 ft | 244 kts | 309° |
| 2026-05-07 14:16 | 48.51547 | 9.01828 | 14314 ft | 254 kts | 309° |
| 2026-05-07 14:16 | 48.52703 | 8.99761 | 13921 ft | 263 kts | 309° |
| 2026-05-07 14:16 | 48.53892 | 8.97635 | 13553 ft | 271 kts | 309° |
| 2026-05-07 14:17 | 48.55110 | 8.95456 | 13167 ft | 277 kts | 309° |
| 2026-05-07 14:17 | 48.56372 | 8.93198 | 12773 ft | 282 kts | 309° |
| 2026-05-07 14:17 | 48.57636 | 8.90934 | 12387 ft | 286 kts | 309° |
| 2026-05-07 14:17 | 48.58922 | 8.88628 | 11992 ft | 288 kts | 309° |
| 2026-05-07 14:18 | 48.60220 | 8.86300 | 11595 ft | 289 kts | 309° |
| 2026-05-07 14:18 | 48.61500 | 8.83999 | 11207 ft | 291 kts | 309° |
| 2026-05-07 14:18 | 48.62814 | 8.81636 | 10831 ft | 292 kts | 309° |
| 2026-05-07 14:18 | 48.64108 | 8.79309 | 10531 ft | 289 kts | 308° |
| 2026-05-07 14:19 | 48.65388 | 8.77004 | 10287 ft | 287 kts | 308° |
| 2026-05-07 14:19 | 48.66679 | 8.74679 | 10179 ft | 294 kts | 308° |
| 2026-05-07 14:19 | 48.68007 | 8.72290 | 9926 ft | 293 kts | 308° |
| 2026-05-07 14:19 | 48.69290 | 8.69971 | 9654 ft | 287 kts | 308° |
| 2026-05-07 14:20 | 48.70555 | 8.67680 | 9383 ft | 282 kts | 308° |
| 2026-05-07 14:20 | 48.71807 | 8.65414 | 9103 ft | 278 kts | 308° |
| 2026-05-07 14:20 | 48.73030 | 8.63199 | 8823 ft | 273 kts | 308° |
| 2026-05-07 14:20 | 48.74240 | 8.61003 | 8558 ft | 270 kts | 309° |
| 2026-05-07 14:21 | 48.75444 | 8.58817 | 8288 ft | 267 kts | 309° |
| 2026-05-07 14:21 | 48.76613 | 8.56694 | 8026 ft | 264 kts | 309° |
| 2026-05-07 14:21 | 48.77777 | 8.54577 | 7767 ft | 259 kts | 309° |
| 2026-05-07 14:21 | 48.78916 | 8.52504 | 7512 ft | 255 kts | 309° |
| 2026-05-07 14:22 | 48.80045 | 8.50450 | 7263 ft | 251 kts | 309° |
| 2026-05-07 14:22 | 48.81158 | 8.48420 | 7017 ft | 247 kts | 309° |
| 2026-05-07 14:22 | 48.82236 | 8.46455 | 6768 ft | 245 kts | 309° |
| 2026-05-07 14:22 | 48.83319 | 8.44479 | 6525 ft | 242 kts | 309° |
| 2026-05-07 14:23 | 48.84394 | 8.42516 | 6296 ft | 240 kts | 310° |
| 2026-05-07 14:23 | 48.85453 | 8.40582 | 6060 ft | 240 kts | 310° |
| 2026-05-07 14:23 | 48.86520 | 8.38633 | 5818 ft | 239 kts | 310° |
| 2026-05-07 14:23 | 48.87582 | 8.36689 | 5580 ft | 239 kts | 310° |
| 2026-05-07 14:24 | 48.88640 | 8.34755 | 5345 ft | 238 kts | 309° |
| 2026-05-07 14:24 | 48.89636 | 8.32928 | 5127 ft | 238 kts | 309° |
| 2026-05-07 14:24 | 48.90695 | 8.30988 | 4864 ft | 239 kts | 310° |
| 2026-05-07 14:24 | 48.91760 | 8.29034 | 4601 ft | 234 kts | 309° |
| 2026-05-07 14:25 | 48.92758 | 8.27185 | 4355 ft | 227 kts | 309° |
| 2026-05-07 14:25 | 48.93327 | 8.25789 | 3983 ft | 239 kts | 292° |
| 2026-05-07 14:25 | 48.93109 | 8.22515 | 3554 ft | 243 kts | 240° |
| 2026-05-07 14:25 | 48.91936 | 8.20664 | 3289 ft | 247 kts | 217° |
| 2026-05-07 14:26 | 48.90525 | 8.19212 | 2970 ft | 248 kts | 213° |
| 2026-05-07 14:26 | 48.89065 | 8.17914 | 2583 ft | 238 kts | 211° |
| 2026-05-07 14:26 | 48.87672 | 8.16718 | 2215 ft | 220 kts | 208° |
| 2026-05-07 14:26 | 48.86427 | 8.15728 | 2059 ft | 191 kts | 208° |
| 2026-05-07 14:27 | 48.85281 | 8.14781 | 1810 ft | 180 kts | 210° |
| 2026-05-07 14:27 | 48.84255 | 8.13908 | 2010 ft | 156 kts | 212° |
| 2026-05-07 14:27 | 48.83383 | 8.13082 | 1810 ft | 142 kts | 214° |
| 2026-05-07 14:27 | 48.82589 | 8.12292 | 1425 ft | 139 kts | 213° |
| 2026-05-07 14:28 | 48.81749 | 8.11518 | 1225 ft | 144 kts | 207° |
| 2026-05-07 14:28 | 48.80847 | 8.10765 | 1048 ft | 151 kts | 209° |
| 2026-05-07 14:28 | 48.79943 | 8.09912 | 765 ft | 155 kts | 208° |
| 2026-05-07 14:28 | 48.79037 | 8.09091 | 478 ft | 148 kts | 212° |
| 2026-05-07 14:29 | 48.78262 | 8.08364 | 404 ft | 99 kts | 211° |
| 2026-05-07 14:29 | 48.77958 | 8.08069 | 403 ft | 7 kts | 211° |
| 2026-05-07 14:29 | 48.77884 | 8.08050 | 403 ft | 12 kts | 139° |
| 2026-05-07 14:29 | 48.77844 | 8.08126 | 402 ft | 0 kts | 124° |
| 2026-05-07 14:30 | 48.77840 | 8.08136 | 401 ft | 2 kts | 125° |
| 2026-05-07 14:30 | 48.77826 | 8.08166 | 401 ft | 4 kts | 124° |
| 2026-05-07 14:30 | 48.77829 | 8.08238 | 402 ft | 12 kts | 51° |
| 2026-05-07 14:30 | 48.77934 | 8.08328 | 404 ft | 22 kts | 30° |
| 2026-05-07 14:31 | 48.78070 | 8.08476 | 404 ft | 22 kts | 31° |
| 2026-05-07 14:31 | 48.78144 | 8.08581 | 404 ft | 10 kts | 95° |
| 2026-05-07 14:31 | 48.78114 | 8.08674 | 405 ft | 9 kts | 119° |
| 2026-05-07 14:31 | 48.78097 | 8.08757 | 406 ft | 7 kts | 105° |
| 2026-05-07 14:32 | 48.78081 | 8.08807 | 407 ft | 0 kts | 121° |